Kitty — ZCXB — position and weather

sailwx.info

Track history (hours):
 
Tides and Currents Weather Stations Pressure Air Temp Water Temp Dewpoint Dewpoint Depression Visibility Wind Speed Wind Dir Waves Ship Positions

Kitty

Last reported at 2015-Aug-30 18:27 UTC. Time now 2015-Aug-30 19:58 UTC.
Position N 38°46' E 001°26'.

Length 38 m; draft 2.7 m.

Type: Pleasure craft. MMSI: 319423000.

Date/timePositionNaut miles runAvg speedWind from/ knotsBaromVisibWave heightAir tempDewpointWater temp
2015-Aug-30 18:27N 38°46' E 001°26'3 2.9
2015-Aug-30 17:33N 38°47' E 001°23'  
2015-Aug-27 07:31N 38°46' E 001°26'0 0.0
2015-Aug-27 03:07N 38°46' E 001°26'0 0.0
2015-Aug-27 02:31N 38°46' E 001°26'0 0.0
2015-Aug-26 23:19N 38°46' E 001°26'0 0.0
2015-Aug-26 22:19N 38°46' E 001°26'0 0.0
2015-Aug-26 18:31N 38°46' E 001°26'0 0.0
2015-Aug-26 17:31N 38°46' E 001°26'0 0.0
2015-Aug-26 15:25N 38°46' E 001°26'  
2015-Aug-23 16:11N 38°53' E 001°27'710.9
2015-Aug-23 15:33N 38°47' E 001°30'6 2.1
2015-Aug-23 12:32N 38°41' E 001°32'0 0.0
2015-Aug-23 11:25N 38°41' E 001°32'0 0.0
2015-Aug-23 10:18N 38°41' E 001°32'10 3.7
2015-Aug-23 07:30N 38°51' E 001°27'1 0.0
2015-Aug-22 15:33N 38°51' E 001°26'5 0.8
2015-Aug-22 09:28N 38°46' E 001°26'0 0.0
2015-Aug-22 08:28N 38°46' E 001°26'1 0.6
2015-Aug-22 07:20N 38°46' E 001°25'8 9.9
2015-Aug-22 06:33N 38°54' E 001°27'1 0.1
2015-Aug-21 19:30N 38°52' E 001°27'6 5.6
2015-Aug-21 18:23N 38°46' E 001°26'0 0.0
2015-Aug-21 14:17N 38°46' E 001°26'0 0.0
2015-Aug-21 13:05N 38°46' E 001°26'0 0.0
2015-Aug-21 09:11N 38°46' E 001°26'0 0.0
2015-Aug-20 23:05N 38°46' E 001°26'  
Track history (hours):
 
Tides and Currents Weather Stations Pressure Air Temp Water Temp Dewpoint Dewpoint Depression Visibility Wind Speed Wind Dir Waves Ship Positions

Kitty

Last reported at 2015-Aug-30 18:27 UTC. Time now 2015-Aug-30 19:58 UTC.
Position N 38°46' E 001°26'.

Length 38 m; draft 2.7 m.

Type: Pleasure craft. MMSI: 319423000.

Date/timePositionNaut miles runAvg speedWind from/ knotsBaromVisibWave heightAir tempDewpointWater temp
2015-Aug-30 18:27N 38°46' E 001°26'3 2.9
2015-Aug-30 17:33N 38°47' E 001°23'  
2015-Aug-27 07:31N 38°46' E 001°26'0 0.0
2015-Aug-27 03:07N 38°46' E 001°26'0 0.0
2015-Aug-27 02:31N 38°46' E 001°26'0 0.0
2015-Aug-26 23:19N 38°46' E 001°26'0 0.0
2015-Aug-26 22:19N 38°46' E 001°26'0 0.0
2015-Aug-26 18:31N 38°46' E 001°26'0 0.0
2015-Aug-26 17:31N 38°46' E 001°26'0 0.0
2015-Aug-26 15:25N 38°46' E 001°26'  
2015-Aug-23 16:11N 38°53' E 001°27'710.9
2015-Aug-23 15:33N 38°47' E 001°30'6 2.1
2015-Aug-23 12:32N 38°41' E 001°32'0 0.0
2015-Aug-23 11:25N 38°41' E 001°32'0 0.0
2015-Aug-23 10:18N 38°41' E 001°32'10 3.7
2015-Aug-23 07:30N 38°51' E 001°27'1 0.0
2015-Aug-22 15:33N 38°51' E 001°26'5 0.8
2015-Aug-22 09:28N 38°46' E 001°26'0 0.0
2015-Aug-22 08:28N 38°46' E 001°26'1 0.6
2015-Aug-22 07:20N 38°46' E 001°25'8 9.9
2015-Aug-22 06:33N 38°54' E 001°27'1 0.1
2015-Aug-21 19:30N 38°52' E 001°27'6 5.6
2015-Aug-21 18:23N 38°46' E 001°26'0 0.0
2015-Aug-21 14:17N 38°46' E 001°26'0 0.0
2015-Aug-21 13:05N 38°46' E 001°26'0 0.0
2015-Aug-21 09:11N 38°46' E 001°26'0 0.0
2015-Aug-20 23:05N 38°46' E 001°26'  

Dump ship's entire track history